sensor_id;sensor_type;location;lat;lon;timestamp;P1;durP1;ratioP1;P2;durP2;ratioP2
75768;SDS011;64379;48.888;8.330;2022-12-24T15:49:13;8.63;;;1.83;;
75768;SDS011;64379;48.888;8.330;2022-12-24T15:51:41;7.30;;;1.98;;
75768;SDS011;64379;48.888;8.330;2022-12-24T15:54:10;10.02;;;2.22;;
75768;SDS011;64379;48.888;8.330;2022-12-24T15:56:39;13.07;;;2.30;;
75768;SDS011;64379;48.888;8.330;2022-12-24T15:59:28;11.73;;;2.60;;
75768;SDS011;64379;48.888;8.330;2022-12-24T16:08:06;15.75;;;4.68;;
75768;SDS011;64379;48.888;8.330;2022-12-24T16:13:12;12.32;;;3.28;;
75768;SDS011;64379;48.888;8.330;2022-12-24T16:15:48;11.70;;;3.00;;
75768;SDS011;64379;48.888;8.330;2022-12-24T16:18:17;8.63;;;2.40;;
75768;SDS011;64379;48.888;8.330;2022-12-24T16:21:04;11.73;;;2.83;;
75768;SDS011;64379;48.888;8.330;2022-12-24T16:23:38;12.73;;;3.00;;
75768;SDS011;64379;48.888;8.330;2022-12-24T16:26:10;11.82;;;3.00;;
75768;SDS011;64379;48.888;8.330;2022-12-24T16:28:35;9.60;;;3.00;;
75768;SDS011;64379;48.888;8.330;2022-12-24T16:31:01;11.80;;;2.90;;
75768;SDS011;64379;48.888;8.330;2022-12-24T16:33:27;9.77;;;2.28;;
75768;SDS011;64379;48.888;8.330;2022-12-24T16:35:53;7.78;;;2.17;;
75768;SDS011;64379;48.888;8.330;2022-12-24T16:38:19;10.63;;;2.97;;
75768;SDS011;64379;48.888;8.330;2022-12-24T16:40:45;10.35;;;2.72;;
75768;SDS011;64379;48.888;8.330;2022-12-24T16:43:10;10.15;;;2.50;;
75768;SDS011;64379;48.888;8.330;2022-12-24T16:46:02;8.00;;;2.30;;
75768;SDS011;64379;48.888;8.330;2022-12-24T16:48:30;10.13;;;2.60;;
75768;SDS011;64379;48.888;8.330;2022-12-24T16:51:00;9.55;;;2.45;;
75768;SDS011;64379;48.888;8.330;2022-12-24T16:53:26;11.82;;;3.08;;
75768;SDS011;64379;48.888;8.330;2022-12-24T16:55:52;9.60;;;3.13;;
75768;SDS011;64379;48.888;8.330;2022-12-24T16:58:17;8.40;;;2.80;;
75768;SDS011;64379;48.888;8.330;2022-12-24T17:00:44;10.52;;;2.50;;
75768;SDS011;64379;48.888;8.330;2022-12-24T17:03:10;8.95;;;2.63;;
75768;SDS011;64379;48.888;8.330;2022-12-24T17:05:37;8.25;;;3.00;;
75768;SDS011;64379;48.888;8.330;2022-12-24T17:08:07;9.10;;;2.97;;
75768;SDS011;64379;48.888;8.330;2022-12-24T17:10:33;9.30;;;2.83;;
75768;SDS011;64379;48.888;8.330;2022-12-24T17:12:59;11.48;;;2.88;;
75768;SDS011;64379;48.888;8.330;2022-12-24T17:15:25;6.40;;;2.30;;
75768;SDS011;64379;48.888;8.330;2022-12-24T17:17:51;8.35;;;2.08;;
75768;SDS011;64379;48.888;8.330;2022-12-24T17:20:17;10.23;;;2.13;;
75768;SDS011;64379;48.888;8.330;2022-12-24T17:22:42;8.30;;;2.05;;
75768;SDS011;64379;48.888;8.330;2022-12-24T17:25:09;8.05;;;2.50;;
75768;SDS011;64379;48.888;8.330;2022-12-24T17:27:37;8.25;;;2.05;;
75768;SDS011;64379;48.888;8.330;2022-12-24T17:30:04;10.20;;;2.20;;
75768;SDS011;64379;48.888;8.330;2022-12-24T17:32:30;8.50;;;2.20;;
75768;SDS011;64379;48.888;8.330;2022-12-24T17:34:56;7.53;;;2.00;;
75768;SDS011;64379;48.888;8.330;2022-12-24T17:37:24;8.60;;;2.65;;
75768;SDS011;64379;48.888;8.330;2022-12-24T17:39:50;8.90;;;2.22;;
75768;SDS011;64379;48.888;8.330;2022-12-24T17:42:15;14.70;;;2.53;;
75768;SDS011;64379;48.888;8.330;2022-12-24T17:44:41;9.80;;;2.50;;
75768;SDS011;64379;48.888;8.330;2022-12-24T17:47:07;10.20;;;2.58;;
75768;SDS011;64379;48.888;8.330;2022-12-24T17:49:32;7.97;;;2.53;;
75768;SDS011;64379;48.888;8.330;2022-12-24T17:51:58;11.13;;;3.13;;
75768;SDS011;64379;48.888;8.330;2022-12-24T17:54:24;18.27;;;4.30;;
75768;SDS011;64379;48.888;8.330;2022-12-24T17:56:50;8.85;;;3.00;;
75768;SDS011;64379;48.888;8.330;2022-12-24T17:59:15;8.18;;;2.17;;
75768;SDS011;64379;48.888;8.330;2022-12-24T18:01:41;7.25;;;1.92;;
75768;SDS011;64379;48.888;8.330;2022-12-24T18:04:07;7.45;;;1.90;;
75768;SDS011;64379;48.888;8.330;2022-12-24T18:06:34;8.18;;;2.47;;
75768;SDS011;64379;48.888;8.330;2022-12-24T18:08:59;10.23;;;3.17;;
75768;SDS011;64379;48.888;8.330;2022-12-24T18:13:51;8.90;;;3.30;;
75768;SDS011;64379;48.888;8.330;2022-12-24T18:16:18;11.27;;;3.38;;
75768;SDS011;64379;48.888;8.330;2022-12-24T18:18:44;8.57;;;2.90;;
75768;SDS011;64379;48.888;8.330;2022-12-24T18:21:10;8.65;;;2.60;;
75768;SDS011;64379;48.888;8.330;2022-12-24T18:23:36;10.20;;;3.55;;
75768;SDS011;64379;48.888;8.330;2022-12-24T18:26:05;7.75;;;1.98;;
75768;SDS011;64379;48.888;8.330;2022-12-24T18:28:31;8.10;;;1.80;;
75768;SDS011;64379;48.888;8.330;2022-12-24T18:31:00;8.85;;;2.47;;
75768;SDS011;64379;48.888;8.330;2022-12-24T18:33:29;6.50;;;2.00;;
75768;SDS011;64379;48.888;8.330;2022-12-24T18:35:55;7.57;;;2.13;;
75768;SDS011;64379;48.888;8.330;2022-12-24T18:38:21;6.20;;;1.80;;
75768;SDS011;64379;48.888;8.330;2022-12-24T18:40:47;6.47;;;2.22;;
75768;SDS011;64379;48.888;8.330;2022-12-24T18:43:12;8.80;;;2.00;;
75768;SDS011;64379;48.888;8.330;2022-12-24T18:45:44;7.25;;;2.20;;
75768;SDS011;64379;48.888;8.330;2022-12-24T18:48:11;7.63;;;2.10;;
75768;SDS011;64379;48.888;8.330;2022-12-24T18:50:37;7.80;;;2.00;;
75768;SDS011;64379;48.888;8.330;2022-12-24T18:53:04;8.80;;;1.80;;
75768;SDS011;64379;48.888;8.330;2022-12-24T18:55:34;6.50;;;1.80;;
75768;SDS011;64379;48.888;8.330;2022-12-24T18:58:04;8.80;;;1.83;;
75768;SDS011;64379;48.888;8.330;2022-12-24T19:00:29;5.47;;;1.58;;
75768;SDS011;64379;48.888;8.330;2022-12-24T19:02:55;5.32;;;1.73;;
75768;SDS011;64379;48.888;8.330;2022-12-24T19:05:20;5.85;;;1.70;;
75768;SDS011;64379;48.888;8.330;2022-12-24T19:07:46;7.05;;;2.28;;
75768;SDS011;64379;48.888;8.330;2022-12-24T19:10:12;6.53;;;1.90;;
75768;SDS011;64379;48.888;8.330;2022-12-24T19:12:37;10.38;;;2.72;;
75768;SDS011;64379;48.888;8.330;2022-12-24T19:15:04;11.02;;;3.25;;
75768;SDS011;64379;48.888;8.330;2022-12-24T19:17:30;9.70;;;2.35;;
75768;SDS011;64379;48.888;8.330;2022-12-24T19:19:56;10.15;;;2.70;;
75768;SDS011;64379;48.888;8.330;2022-12-24T19:22:21;8.73;;;2.70;;
75768;SDS011;64379;48.888;8.330;2022-12-24T19:24:49;12.48;;;2.45;;
75768;SDS011;64379;48.888;8.330;2022-12-24T19:27:15;8.32;;;2.70;;
75768;SDS011;64379;48.888;8.330;2022-12-24T19:29:40;8.10;;;2.60;;
75768;SDS011;64379;48.888;8.330;2022-12-24T19:32:06;9.30;;;2.95;;
75768;SDS011;64379;48.888;8.330;2022-12-24T19:34:32;7.43;;;2.50;;
75768;SDS011;64379;48.888;8.330;2022-12-24T19:36:57;6.70;;;2.80;;
75768;SDS011;64379;48.888;8.330;2022-12-24T19:39:23;7.28;;;2.15;;
75768;SDS011;64379;48.888;8.330;2022-12-24T19:41:48;9.25;;;2.15;;
75768;SDS011;64379;48.888;8.330;2022-12-24T19:44:17;7.80;;;2.50;;
75768;SDS011;64379;48.888;8.330;2022-12-24T19:46:42;14.80;;;3.65;;
75768;SDS011;64379;48.888;8.330;2022-12-24T19:49:09;7.82;;;2.70;;
75768;SDS011;64379;48.888;8.330;2022-12-24T19:51:35;11.48;;;3.45;;
75768;SDS011;64379;48.888;8.330;2022-12-24T19:54:01;10.02;;;3.05;;
75768;SDS011;64379;48.888;8.330;2022-12-24T19:56:28;12.43;;;3.03;;
75768;SDS011;64379;48.888;8.330;2022-12-24T19:58:55;14.50;;;4.05;;
75768;SDS011;64379;48.888;8.330;2022-12-24T20:01:23;11.50;;;3.92;;
75768;SDS011;64379;48.888;8.330;2022-12-24T20:03:50;11.68;;;3.25;;
75768;SDS011;64379;48.888;8.330;2022-12-24T20:06:18;8.15;;;2.10;;
75768;SDS011;64379;48.888;8.330;2022-12-24T20:08:45;11.63;;;2.40;;
75768;SDS011;64379;48.888;8.330;2022-12-24T20:11:12;7.25;;;2.10;;
75768;SDS011;64379;48.888;8.330;2022-12-24T20:13:39;8.38;;;2.00;;
75768;SDS011;64379;48.888;8.330;2022-12-24T20:16:07;9.57;;;2.00;;
75768;SDS011;64379;48.888;8.330;2022-12-24T20:18:34;7.60;;;1.85;;
75768;SDS011;64379;48.888;8.330;2022-12-24T20:21:01;8.85;;;2.05;;
75768;SDS011;64379;48.888;8.330;2022-12-24T20:23:27;10.10;;;2.10;;
75768;SDS011;64379;48.888;8.330;2022-12-24T20:25:57;7.18;;;2.03;;
75768;SDS011;64379;48.888;8.330;2022-12-24T20:28:27;7.63;;;2.03;;
75768;SDS011;64379;48.888;8.330;2022-12-24T20:30:55;5.80;;;1.83;;
75768;SDS011;64379;48.888;8.330;2022-12-24T20:33:21;7.20;;;2.10;;
75768;SDS011;64379;48.888;8.330;2022-12-24T20:35:47;6.70;;;1.70;;
75768;SDS011;64379;48.888;8.330;2022-12-24T20:38:13;7.28;;;1.80;;
75768;SDS011;64379;48.888;8.330;2022-12-24T20:40:42;7.55;;;2.60;;
75768;SDS011;64379;48.888;8.330;2022-12-24T20:43:09;8.75;;;2.30;;
75768;SDS011;64379;48.888;8.330;2022-12-24T20:45:35;7.25;;;2.53;;
75768;SDS011;64379;48.888;8.330;2022-12-24T20:48:01;6.88;;;2.10;;
75768;SDS011;64379;48.888;8.330;2022-12-24T20:50:28;7.32;;;2.00;;
75768;SDS011;64379;48.888;8.330;2022-12-24T20:52:54;6.00;;;1.63;;
75768;SDS011;64379;48.888;8.330;2022-12-24T20:55:20;7.35;;;1.88;;
75768;SDS011;64379;48.888;8.330;2022-12-24T20:57:48;7.25;;;1.95;;
75768;SDS011;64379;48.888;8.330;2022-12-24T21:00:15;6.82;;;1.67;;
75768;SDS011;64379;48.888;8.330;2022-12-24T21:02:41;6.07;;;1.77;;
75768;SDS011;64379;48.888;8.330;2022-12-24T21:05:07;7.35;;;1.75;;
75768;SDS011;64379;48.888;8.330;2022-12-24T21:07:34;10.68;;;1.55;;
75768;SDS011;64379;48.888;8.330;2022-12-24T21:10:03;7.35;;;2.10;;
75768;SDS011;64379;48.888;8.330;2022-12-24T21:12:31;8.32;;;1.60;;
75768;SDS011;64379;48.888;8.330;2022-12-24T21:15:12;9.93;;;2.03;;
75768;SDS011;64379;48.888;8.330;2022-12-24T21:17:43;7.68;;;1.60;;
75768;SDS011;64379;48.888;8.330;2022-12-24T21:20:09;9.27;;;2.05;;
75768;SDS011;64379;48.888;8.330;2022-12-24T21:22:35;6.63;;;1.80;;
75768;SDS011;64379;48.888;8.330;2022-12-24T21:25:01;6.72;;;1.85;;
75768;SDS011;64379;48.888;8.330;2022-12-24T21:27:27;7.00;;;2.28;;
75768;SDS011;64379;48.888;8.330;2022-12-24T21:29:53;7.05;;;1.67;;
75768;SDS011;64379;48.888;8.330;2022-12-24T21:32:19;6.07;;;1.95;;
75768;SDS011;64379;48.888;8.330;2022-12-24T21:34:44;10.95;;;2.40;;
75768;SDS011;64379;48.888;8.330;2022-12-24T21:37:10;8.93;;;2.55;;
75768;SDS011;64379;48.888;8.330;2022-12-24T21:39:36;7.05;;;2.13;;
75768;SDS011;64379;48.888;8.330;2022-12-24T21:42:01;7.72;;;2.80;;
75768;SDS011;64379;48.888;8.330;2022-12-24T21:44:27;6.05;;;1.67;;
75768;SDS011;64379;48.888;8.330;2022-12-24T21:46:52;7.95;;;2.13;;
75768;SDS011;64379;48.888;8.330;2022-12-24T21:49:18;8.70;;;2.50;;
75768;SDS011;64379;48.888;8.330;2022-12-24T21:52:03;11.20;;;2.33;;
75768;SDS011;64379;48.888;8.330;2022-12-24T21:54:28;13.30;;;2.72;;
75768;SDS011;64379;48.888;8.330;2022-12-24T21:56:56;7.03;;;1.75;;
75768;SDS011;64379;48.888;8.330;2022-12-24T21:59:47;10.13;;;2.00;;
75768;SDS011;64379;48.888;8.330;2022-12-24T22:04:40;7.15;;;1.40;;
75768;SDS011;64379;48.888;8.330;2022-12-24T22:07:06;6.50;;;1.80;;
75768;SDS011;64379;48.888;8.330;2022-12-24T22:09:59;11.00;;;1.95;;
75768;SDS011;64379;48.888;8.330;2022-12-24T22:12:43;5.60;;;1.45;;
75768;SDS011;64379;48.888;8.330;2022-12-24T22:15:09;7.47;;;1.27;;
75768;SDS011;64379;48.888;8.330;2022-12-24T22:17:35;6.72;;;1.70;;
75768;SDS011;64379;48.888;8.330;2022-12-24T22:20:00;8.43;;;1.75;;
75768;SDS011;64379;48.888;8.330;2022-12-24T22:22:26;8.00;;;1.45;;
75768;SDS011;64379;48.888;8.330;2022-12-24T22:24:51;6.57;;;1.80;;
75768;SDS011;64379;48.888;8.330;2022-12-24T22:27:17;8.00;;;2.30;;
75768;SDS011;64379;48.888;8.330;2022-12-24T22:29:43;6.30;;;2.28;;
75768;SDS011;64379;48.888;8.330;2022-12-24T22:32:08;6.57;;;2.30;;
75768;SDS011;64379;48.888;8.330;2022-12-24T22:34:34;9.07;;;2.10;;
75768;SDS011;64379;48.888;8.330;2022-12-24T22:37:00;7.07;;;2.50;;
75768;SDS011;64379;48.888;8.330;2022-12-24T22:39:26;4.82;;;1.60;;
75768;SDS011;64379;48.888;8.330;2022-12-24T22:41:51;9.38;;;1.73;;
75768;SDS011;64379;48.888;8.330;2022-12-24T22:44:17;10.45;;;3.03;;
75768;SDS011;64379;48.888;8.330;2022-12-24T22:46:43;9.75;;;3.40;;
75768;SDS011;64379;48.888;8.330;2022-12-24T22:49:09;13.27;;;3.78;;
75768;SDS011;64379;48.888;8.330;2022-12-24T22:51:35;12.98;;;4.70;;
75768;SDS011;64379;48.888;8.330;2022-12-24T22:54:01;11.02;;;3.95;;
75768;SDS011;64379;48.888;8.330;2022-12-24T22:56:27;6.22;;;2.25;;
75768;SDS011;64379;48.888;8.330;2022-12-24T22:58:53;9.27;;;2.70;;
75768;SDS011;64379;48.888;8.330;2022-12-24T23:01:29;7.38;;;2.35;;
75768;SDS011;64379;48.888;8.330;2022-12-24T23:03:56;6.97;;;2.88;;
75768;SDS011;64379;48.888;8.330;2022-12-24T23:06:21;8.40;;;2.72;;
75768;SDS011;64379;48.888;8.330;2022-12-24T23:08:47;7.28;;;2.90;;
75768;SDS011;64379;48.888;8.330;2022-12-24T23:11:13;7.30;;;2.33;;
75768;SDS011;64379;48.888;8.330;2022-12-24T23:13:40;8.70;;;2.13;;
75768;SDS011;64379;48.888;8.330;2022-12-24T23:16:26;8.60;;;1.98;;
75768;SDS011;64379;48.888;8.330;2022-12-24T23:18:53;7.30;;;1.98;;
75768;SDS011;64379;48.888;8.330;2022-12-24T23:21:21;6.97;;;1.75;;
75768;SDS011;64379;48.888;8.330;2022-12-24T23:23:46;8.98;;;1.85;;
75768;SDS011;64379;48.888;8.330;2022-12-24T23:26:13;8.77;;;1.90;;
75768;SDS011;64379;48.888;8.330;2022-12-24T23:28:41;6.40;;;1.80;;
75768;SDS011;64379;48.888;8.330;2022-12-24T23:31:07;6.18;;;1.60;;
75768;SDS011;64379;48.888;8.330;2022-12-24T23:33:34;6.68;;;1.63;;
75768;SDS011;64379;48.888;8.330;2022-12-24T23:36:00;7.10;;;1.40;;
75768;SDS011;64379;48.888;8.330;2022-12-24T23:38:26;8.10;;;1.90;;
75768;SDS011;64379;48.888;8.330;2022-12-24T23:40:55;7.50;;;1.83;;
75768;SDS011;64379;48.888;8.330;2022-12-24T23:43:25;5.32;;;1.60;;
75768;SDS011;64379;48.888;8.330;2022-12-24T23:45:51;7.07;;;1.70;;
75768;SDS011;64379;48.888;8.330;2022-12-24T23:48:19;6.93;;;1.63;;
75768;SDS011;64379;48.888;8.330;2022-12-24T23:50:45;6.35;;;1.75;;
75768;SDS011;64379;48.888;8.330;2022-12-24T23:53:11;6.20;;;1.50;;
75768;SDS011;64379;48.888;8.330;2022-12-24T23:55:37;7.75;;;1.70;;
75768;SDS011;64379;48.888;8.330;2022-12-24T23:58:04;7.43;;;1.42;;
